Time;durP1;ratioP1;P1;durP2;ratioP2;P2;SDS_P1;SDS_P2;PMS_P1;PMS_P2;Temp;Humidity;BMP_temperature;BMP_pressure;BME280_temperature;BME280_humidity;BME280_pressure;Samples;Min_cycle;Max_cycle;Signal;HPM_P1;HPM_P2
2022/09/28 00:00:26;;;;;;;0.13;0.00;;;20.80;61.50;;;;;;4983156;28;20038;-18
2022/09/28 00:02:55;;;;;;;0.10;0.05;;;20.80;61.70;;;;;;4984427;28;20046;-19
2022/09/28 00:05:21;;;;;;;0.00;0.00;;;20.80;61.70;;;;;;4987423;28;20062;-19
2022/09/28 00:07:46;;;;;;;0.10;0.10;;;20.70;61.60;;;;;;4983408;28;20129;-18
2022/09/28 00:10:12;;;;;;;0.10;0.00;;;20.80;61.50;;;;;;4982195;28;20146;-24
2022/09/28 00:12:39;;;;;;;1.30;0.20;;;20.80;61.90;;;;;;4984699;28;20500;-18
2022/09/28 00:15:05;;;;;;;0.00;0.00;;;20.80;61.70;;;;;;4982679;28;20038;-18
2022/09/28 00:17:30;;;;;;;0.00;0.00;;;20.80;61.50;;;;;;4987457;28;20046;-19
2022/09/28 00:19:56;;;;;;;0.00;0.00;;;20.80;61.60;;;;;;4984487;28;20566;-19
2022/09/28 00:22:22;;;;;;;0.00;0.00;;;20.80;61.70;;;;;;4981526;28;20049;-22
2022/09/28 00:37:53;;;;;;;0.10;0.10;;;20.70;61.90;;;;;;5123362;27;20398;-20
2022/09/28 00:40:19;;;;;;;0.00;0.00;;;20.60;62.50;;;;;;5119566;28;20088;-20
2022/09/28 00:42:45;;;;;;;0.63;0.08;;;20.50;62.90;;;;;;5109281;28;20023;-22
2022/09/28 00:45:11;;;;;;;0.00;0.00;;;20.50;63.00;;;;;;5122899;27;20019;-20
2022/09/28 00:47:39;;;;;;;0.10;0.10;;;20.50;62.80;;;;;;5126343;28;20443;-19
2022/09/28 00:50:09;;;;;;;0.17;0.10;;;20.60;62.60;;;;;;5120146;28;20031;-20
2022/09/28 00:52:48;;;;;;;0.20;0.20;;;20.60;62.00;;;;;;5108053;28;20023;-20
2022/09/28 00:55:20;;;;;;;0.10;0.00;;;20.50;62.70;;;;;;5120582;28;20023;-20
2022/09/28 00:57:49;;;;;;;0.10;0.10;;;20.60;63.10;;;;;;5107899;28;20057;-20
2022/09/28 01:00:14;;;;;;;0.00;0.00;;;20.50;62.70;;;;;;5102389;28;20031;-17
2022/09/28 01:02:41;;;;;;;0.00;0.00;;;20.60;62.70;;;;;;5132067;27;20380;-19
2022/09/28 01:05:06;;;;;;;0.00;0.00;;;20.70;62.30;;;;;;5114120;28;20024;-19
2022/09/28 01:07:32;;;;;;;0.10;0.10;;;20.70;61.90;;;;;;5090997;28;20096;-20
2022/09/28 01:09:58;;;;;;;0.10;0.10;;;20.70;61.90;;;;;;5101025;28;20405;-20
2022/09/28 01:12:23;;;;;;;0.38;0.05;;;20.70;62.10;;;;;;5127390;28;20023;-20
2022/09/28 01:14:49;;;;;;;0.03;0.03;;;20.70;61.90;;;;;;5117719;28;20090;-20
2022/09/28 01:17:43;;;;;;;0.03;0.00;;;20.70;62.10;;;;;;5110357;28;20031;-19
2022/09/28 01:20:38;;;;;;;0.55;0.17;;;20.70;62.00;;;;;;5105969;28;20049;-34
2022/09/28 01:23:11;;;;;;;0.28;0.00;;;20.80;61.80;;;;;;5107651;28;20090;-19
2022/09/28 01:25:49;;;;;;;0.45;0.00;;;20.70;61.60;;;;;;5095376;28;20032;-22
2022/09/28 01:28:18;;;;;;;0.40;0.00;;;20.70;62.00;;;;;;5106466;28;20081;-20
2022/09/28 01:30:55;;;;;;;0.20;0.03;;;20.80;61.70;;;;;;5093610;28;20080;-19
2022/09/28 01:33:30;;;;;;;0.00;0.00;;;20.70;61.80;;;;;;5105080;28;20119;-21
2022/09/28 01:36:14;;;;;;;0.00;0.00;;;20.70;61.80;;;;;;5123474;27;20046;-20
2022/09/28 01:38:45;;;;;;;0.85;0.00;;;20.60;62.50;;;;;;5082882;28;20489;-19
2022/09/28 01:41:11;;;;;;;0.85;0.05;;;20.50;63.40;;;;;;5096881;28;20035;-25
2022/09/28 01:43:39;;;;;;;0.50;0.10;;;20.50;62.70;;;;;;5080406;28;20024;-20
2022/09/28 01:46:17;;;;;;;0.17;0.10;;;20.60;62.30;;;;;;5091734;28;20127;-19
2022/09/28 01:48:47;;;;;;;1.08;0.03;;;20.70;62.10;;;;;;5070889;28;20030;-18
2022/09/28 01:51:19;;;;;;;0.20;0.00;;;20.60;62.60;;;;;;5070835;28;20133;-19
2022/09/28 01:53:53;;;;;;;0.10;0.00;;;20.60;62.30;;;;;;5080597;28;20028;-19
2022/09/28 01:56:27;;;;;;;0.20;0.00;;;20.70;62.30;;;;;;5093508;28;20492;-19
2022/09/28 01:59:19;;;;;;;1.75;0.05;;;20.70;62.10;;;;;;5070844;28;20031;-20
2022/09/28 02:01:56;;;;;;;0.00;0.00;;;20.60;62.10;;;;;;5101686;27;20115;-19
2022/09/28 02:04:36;;;;;;;0.00;0.00;;;20.70;62.20;;;;;;5067348;28;20028;-24
2022/09/28 02:07:06;;;;;;;0.00;0.00;;;20.60;63.20;;;;;;5079982;28;20036;-22
2022/09/28 02:09:35;;;;;;;0.50;0.05;;;20.60;62.30;;;;;;5100210;28;20036;-18
2022/09/28 02:12:04;;;;;;;0.00;0.00;;;20.60;62.30;;;;;;5096866;28;20012;-19
2022/09/28 02:14:29;;;;;;;0.00;0.00;;;20.60;62.20;;;;;;5066354;28;20031;-18
2022/09/28 02:16:55;;;;;;;0.00;0.00;;;20.60;62.60;;;;;;5070670;28;20034;-19
2022/09/28 02:19:22;;;;;;;0.10;0.10;;;20.70;62.40;;;;;;5097266;28;20085;-19
2022/09/28 02:22:01;;;;;;;0.03;0.00;;;20.70;62.20;;;;;;5076392;28;20020;-19
2022/09/28 02:24:39;;;;;;;0.20;0.20;;;20.70;62.30;;;;;;5082921;28;20020;-19
2022/09/28 02:27:16;;;;;;;0.00;0.00;;;20.60;62.50;;;;;;5113295;28;20035;-19
2022/09/28 02:29:41;;;;;;;0.00;0.00;;;20.70;62.20;;;;;;5087701;28;20089;-18
2022/09/28 02:32:07;;;;;;;0.03;0.00;;;20.70;62.50;;;;;;5094104;28;20473;-20
2022/09/28 02:34:32;;;;;;;0.10;0.00;;;20.70;62.20;;;;;;5082966;28;20031;-22
2022/09/28 02:36:58;;;;;;;0.00;0.00;;;20.70;62.30;;;;;;5075946;28;20051;-19
2022/09/28 02:39:25;;;;;;;0.10;0.00;;;20.70;62.20;;;;;;5093278;28;20436;-19
2022/09/28 02:41:59;;;;;;;0.15;0.10;;;20.60;62.40;;;;;;5093576;28;20032;-20
2022/09/28 02:44:46;;;;;;;0.00;0.00;;;20.60;62.50;;;;;;5080647;28;20110;-18
2022/09/28 02:47:45;;;;;;;0.00;0.00;;;20.60;62.30;;;;;;5113399;28;20024;-18
2022/09/28 02:50:48;;;;;;;0.22;0.00;;;20.60;62.30;;;;;;5090901;28;20018;-18
2022/09/28 02:53:39;;;;;;;0.17;0.10;;;20.60;62.40;;;;;;5105894;28;20043;-19
2022/09/28 02:56:16;;;;;;;0.10;0.00;;;20.60;62.60;;;;;;5106613;28;20032;-19
2022/09/28 02:58:53;;;;;;;0.00;0.00;;;20.60;62.60;;;;;;5087867;28;20107;-19
2022/09/28 03:01:38;;;;;;;0.10;0.10;;;20.60;62.60;;;;;;5076935;28;20028;-19
2022/09/28 03:04:20;;;;;;;0.00;0.00;;;20.60;62.40;;;;;;5079518;28;20035;-19
2022/09/28 03:06:47;;;;;;;0.10;0.00;;;20.60;63.30;;;;;;5082917;28;20027;-18
2022/09/28 03:09:22;;;;;;;0.00;0.00;;;20.60;62.60;;;;;;5082664;28;20024;-21
2022/09/28 03:11:56;;;;;;;0.10;0.00;;;20.60;62.50;;;;;;5058870;28;20028;-22
2022/09/28 03:14:21;;;;;;;;;;;20.60;62.40;;;;;;5067366;28;20028;-18
2022/09/28 03:16:47;;;;;;;0.00;0.00;;;20.60;62.60;;;;;;5102583;28;19912;-19
2022/09/28 03:19:12;;;;;;;0.00;0.00;;;20.60;62.50;;;;;;5100749;28;20024;-18
2022/09/28 03:21:38;;;;;;;0.00;0.00;;;20.50;62.50;;;;;;5112663;28;20024;-28
2022/09/28 03:24:04;;;;;;;0.10;0.00;;;20.60;62.50;;;;;;5101660;28;20048;-18
2022/09/28 03:26:30;;;;;;;0.00;0.00;;;20.60;62.50;;;;;;5111661;28;20028;-19
2022/09/28 03:28:56;;;;;;;0.00;0.00;;;20.60;62.40;;;;;;5109789;27;20161;-19
2022/09/28 03:31:22;;;;;;;0.00;0.00;;;20.60;62.30;;;;;;5095713;28;20107;-19
2022/09/28 03:33:47;;;;;;;0.20;0.00;;;20.60;62.50;;;;;;5097017;28;20521;-19
2022/09/28 03:36:14;;;;;;;0.17;0.00;;;20.60;62.50;;;;;;5108613;28;20066;-18
2022/09/28 03:38:39;;;;;;;0.00;0.00;;;20.60;62.50;;;;;;5103100;28;20035;-18
2022/09/28 03:41:06;;;;;;;0.17;0.10;;;20.60;62.60;;;;;;5089497;28;20023;-18
2022/09/28 03:43:31;;;;;;;0.10;0.10;;;20.60;62.30;;;;;;5104305;28;20020;-19
2022/09/28 03:45:58;;;;;;;1.35;0.00;;;20.60;62.00;;;;;;5092620;28;20115;-22
2022/09/28 03:48:28;;;;;;;0.00;0.00;;;20.50;62.50;;;;;;5097071;28;20092;-27
2022/09/28 03:50:58;;;;;;;0.00;0.00;;;20.60;62.00;;;;;;5094083;28;20435;-21
2022/09/28 03:53:24;;;;;;;0.05;0.00;;;20.60;62.10;;;;;;5092364;28;20103;-24
2022/09/28 03:55:52;;;;;;;0.00;0.00;;;20.60;62.20;;;;;;5092821;28;20119;-18
2022/09/28 03:58:18;;;;;;;0.03;0.00;;;20.60;62.40;;;;;;5096738;28;20042;-18
2022/09/28 04:00:43;;;;;;;0.20;0.00;;;20.60;62.30;;;;;;5104089;28;20026;-19
2022/09/28 04:03:09;;;;;;;0.13;0.10;;;20.60;61.70;;;;;;5108088;28;20019;-19
2022/09/28 04:05:35;;;;;;;0.00;0.00;;;20.60;62.40;;;;;;5102929;28;20081;-19
2022/09/28 04:08:00;;;;;;;0.10;0.00;;;20.50;62.20;;;;;;5106263;28;20448;-19
2022/09/28 04:10:26;;;;;;;0.00;0.00;;;20.50;62.50;;;;;;5107889;28;20027;-18
2022/09/28 04:12:56;;;;;;;0.10;0.10;;;20.60;62.20;;;;;;5106759;28;20047;-19
2022/09/28 04:15:23;;;;;;;0.00;0.00;;;20.60;62.30;;;;;;5112967;27;20805;-18
2022/09/28 04:17:49;;;;;;;0.00;0.00;;;20.60;62.10;;;;;;5107351;28;20111;-19
2022/09/28 04:20:14;;;;;;;0.73;0.10;;;20.50;62.10;;;;;;5103338;28;20099;-18
2022/09/28 04:22:40;;;;;;;0.08;0.00;;;20.50;62.70;;;;;;5110628;28;20482;-18
2022/09/28 04:25:06;;;;;;;0.00;0.00;;;20.50;62.50;;;;;;5111040;28;20024;-18
2022/09/28 04:30:16;;;;;;;0.00;0.00;;;20.50;62.50;;;;;;5109399;28;20054;-19
2022/09/28 04:32:41;;;;;;;0.00;0.00;;;20.50;62.30;;;;;;5110273;28;20496;-23
2022/09/28 04:35:08;;;;;;;0.00;0.00;;;20.50;62.50;;;;;;5103962;28;20489;-18
2022/09/28 04:37:34;;;;;;;0.10;0.00;;;20.50;62.40;;;;;;5103831;28;20055;-18
2022/09/28 04:39:59;;;;;;;0.20;0.10;;;20.50;62.80;;;;;;5099650;28;20114;-24
2022/09/28 04:42:25;;;;;;;0.00;0.00;;;20.60;62.50;;;;;;5102446;28;20031;-23
2022/09/28 04:44:50;;;;;;;0.10;0.10;;;20.50;62.30;;;;;;5109918;28;20439;-19
2022/09/28 04:47:16;;;;;;;0.00;0.00;;;20.60;62.30;;;;;;5109960;28;20039;-18
2022/09/28 04:49:41;;;;;;;0.00;0.00;;;20.60;62.20;;;;;;5108777;28;20031;-19
2022/09/28 04:52:07;;;;;;;0.03;0.03;;;20.60;62.40;;;;;;5110452;28;20031;-18
2022/09/28 04:54:33;;;;;;;0.00;0.00;;;20.50;62.20;;;;;;5108855;28;20019;-19
2022/09/28 04:56:58;;;;;;;0.00;0.00;;;20.50;62.50;;;;;;5106146;28;20034;-19
2022/09/28 04:59:24;;;;;;;0.00;0.00;;;20.50;62.50;;;;;;5107624;28;20032;-19
2022/09/28 05:01:51;;;;;;;0.00;0.00;;;20.50;62.50;;;;;;5110696;28;20028;-19
2022/09/28 05:04:17;;;;;;;0.00;0.00;;;20.50;62.30;;;;;;5091837;28;20565;-18
2022/09/28 05:06:42;;;;;;;0.00;0.00;;;20.60;62.20;;;;;;5110545;28;20102;-19
2022/09/28 05:09:08;;;;;;;0.10;0.00;;;20.50;62.40;;;;;;5108444;28;20016;-18
2022/09/28 05:11:34;;;;;;;2.15;0.08;;;20.50;62.60;;;;;;5109681;28;20037;-20
2022/09/28 05:13:59;;;;;;;0.15;0.10;;;20.60;62.60;;;;;;5112588;28;20020;-19
2022/09/28 05:16:25;;;;;;;0.00;0.00;;;20.50;62.50;;;;;;5114411;28;20023;-19
2022/09/28 05:18:57;;;;;;;0.00;0.00;;;20.50;62.80;;;;;;5108256;28;20032;-19
2022/09/28 05:21:25;;;;;;;0.10;0.00;;;20.50;62.60;;;;;;5114234;28;20042;-18
2022/09/28 05:23:50;;;;;;;0.00;0.00;;;20.50;62.50;;;;;;5107618;28;20011;-18
2022/09/28 05:26:16;;;;;;;0.13;0.10;;;20.50;62.60;;;;;;5111649;28;20031;-19
2022/09/28 05:28:43;;;;;;;0.03;0.03;;;20.50;62.70;;;;;;4750583;28;10000867;-18
2022/09/28 05:31:09;;;;;;;0.08;0.00;;;20.40;62.60;;;;;;5095806;28;20016;-18
2022/09/28 05:33:35;;;;;;;0.00;0.00;;;20.40;63.20;;;;;;5101162;28;20092;-19
2022/09/28 05:36:00;;;;;;;0.20;0.00;;;20.40;62.80;;;;;;5111147;28;20048;-19
2022/09/28 05:38:26;;;;;;;0.00;0.00;;;20.60;62.70;;;;;;5103781;28;20027;-18
2022/09/28 05:40:52;;;;;;;0.17;0.00;;;20.50;62.60;;;;;;5100905;28;20501;-19
2022/09/28 05:43:17;;;;;;;0.05;0.05;;;20.40;63.20;;;;;;5106484;28;20123;-22
2022/09/28 05:45:43;;;;;;;0.05;0.00;;;20.40;62.60;;;;;;5098071;28;20325;-18
2022/09/28 05:48:08;;;;;;;0.10;0.10;;;20.50;62.20;;;;;;5105142;28;20115;-18
2022/09/28 05:50:34;;;;;;;0.73;0.10;;;20.50;62.40;;;;;;5104052;28;20629;-19
2022/09/28 05:53:01;;;;;;;3.30;0.00;;;20.50;62.20;;;;;;5100088;27;20016;-19
2022/09/28 05:55:27;;;;;;;0.00;0.00;;;20.50;62.50;;;;;;5101794;28;20051;-19
2022/09/28 05:57:55;;;;;;;0.20;0.00;;;20.50;62.80;;;;;;5100215;28;20023;-18
2022/09/28 06:00:20;;;;;;;0.10;0.00;;;20.50;62.70;;;;;;5113781;27;20038;-19
2022/09/28 06:03:04;;;;;;;0.00;0.00;;;20.40;62.80;;;;;;5092180;28;20024;-18
2022/09/28 06:05:30;;;;;;;0.00;0.00;;;20.40;62.90;;;;;;5072492;28;20048;-18
2022/09/28 06:07:59;;;;;;;0.13;0.05;;;20.40;63.00;;;;;;5092633;28;20042;-18
2022/09/28 06:10:25;;;;;;;0.00;0.00;;;20.40;63.10;;;;;;5087698;28;20031;-18
2022/09/28 06:12:52;;;;;;;0.00;0.00;;;20.40;63.20;;;;;;5110169;28;20047;-19
2022/09/28 06:15:17;;;;;;;0.20;0.00;;;20.40;63.00;;;;;;5112959;28;20020;-18
2022/09/28 06:17:43;;;;;;;0.08;0.00;;;20.40;63.00;;;;;;5102567;28;20027;-18
2022/09/28 06:20:10;;;;;;;0.20;0.00;;;20.40;62.80;;;;;;5097644;28;20020;-18
2022/09/28 06:22:35;;;;;;;0.20;0.00;;;20.50;62.90;;;;;;5094600;28;20064;-19
2022/09/28 06:25:01;;;;;;;0.30;0.10;;;20.40;63.00;;;;;;5109767;28;20024;-26
2022/09/28 06:27:26;;;;;;;0.10;0.10;;;20.40;62.90;;;;;;5108906;28;20563;-18
2022/09/28 06:29:52;;;;;;;0.20;0.10;;;20.40;62.90;;;;;;5103903;28;20024;-19
2022/09/28 06:32:18;;;;;;;0.20;0.00;;;20.40;62.90;;;;;;5094116;28;20035;-18
2022/09/28 06:34:43;;;;;;;2.72;0.10;;;20.40;63.10;;;;;;5105036;28;20024;-18
2022/09/28 06:37:09;;;;;;;0.10;0.00;;;20.40;63.00;;;;;;5109454;28;20047;-19
2022/09/28 06:39:35;;;;;;;0.00;0.00;;;20.40;63.20;;;;;;5082554;28;20031;-18
2022/09/28 06:42:02;;;;;;;0.10;0.00;;;20.40;63.00;;;;;;5131911;27;20031;-18
2022/09/28 06:44:28;;;;;;;0.28;0.13;;;20.40;63.20;;;;;;5101540;27;20020;-19
2022/09/28 06:46:54;;;;;;;0.10;0.10;;;20.30;63.20;;;;;;5114202;28;20108;-22
2022/09/28 06:49:21;;;;;;;0.10;0.05;;;20.40;62.90;;;;;;5100309;28;20028;-18
2022/09/28 06:51:46;;;;;;;0.32;0.03;;;20.50;62.80;;;;;;5114260;28;20027;-18
2022/09/28 06:54:12;;;;;;;0.10;0.00;;;20.40;62.80;;;;;;5101389;28;20090;-19
2022/09/28 06:56:37;;;;;;;0.20;0.03;;;20.40;63.00;;;;;;5112794;28;20047;-19
2022/09/28 06:59:03;;;;;;;0.70;0.08;;;20.40;63.70;;;;;;5102191;28;20032;-19
2022/09/28 07:01:28;;;;;;;0.00;0.00;;;20.40;63.00;;;;;;5111923;28;20031;-18
2022/09/28 07:03:54;;;;;;;0.00;0.00;;;20.40;63.90;;;;;;5103509;28;20501;-23
2022/09/28 07:06:22;;;;;;;0.20;0.00;;;20.30;62.90;;;;;;5110567;28;20024;-18
2022/09/28 07:08:48;;;;;;;0.45;0.00;;;20.40;62.60;;;;;;5096212;28;20123;-18
2022/09/28 07:11:14;;;;;;;0.10;0.00;;;20.50;62.60;;;;;;5093036;28;20542;-19
2022/09/28 07:13:40;;;;;;;0.00;0.00;;;20.50;63.20;;;;;;5097198;28;20093;-18
2022/09/28 07:16:06;;;;;;;0.00;0.00;;;20.40;62.50;;;;;;5108234;28;20039;-19
2022/09/28 07:18:31;;;;;;;0.52;0.00;;;20.50;62.30;;;;;;5106668;28;20062;-18
2022/09/28 07:20:57;;;;;;;0.15;0.00;;;20.50;62.20;;;;;;5088768;28;20118;-18
2022/09/28 07:23:23;;;;;;;0.10;0.03;;;20.50;62.40;;;;;;5107681;28;20036;-18
2022/09/28 07:25:49;;;;;;;0.45;0.00;;;20.50;62.30;;;;;;5105798;28;20034;-18
2022/09/28 07:28:15;;;;;;;0.20;0.00;;;20.50;62.30;;;;;;5108566;28;20015;-19
2022/09/28 07:30:43;;;;;;;0.10;0.05;;;20.50;62.30;;;;;;5100583;27;20052;-19
2022/09/28 07:33:11;;;;;;;0.20;0.10;;;20.50;62.40;;;;;;5096368;28;20072;-19
2022/09/28 07:35:37;;;;;;;0.10;0.10;;;20.50;61.70;;;;;;5085598;28;20557;-19
2022/09/28 07:38:06;;;;;;;0.55;0.10;;;20.50;62.30;;;;;;5108879;28;20106;-19
2022/09/28 07:43:19;;;;;;;0.10;0.00;;;20.50;62.40;;;;;;5108043;28;20054;-18
2022/09/28 07:45:49;;;;;;;0.00;0.00;;;20.50;63.30;;;;;;5104722;28;20215;-18
2022/09/28 07:48:15;;;;;;;0.00;0.00;;;20.50;62.40;;;;;;5108294;28;20103;-19
2022/09/28 07:50:42;;;;;;;0.00;0.00;;;20.50;62.50;;;;;;5104311;28;20370;-18
2022/09/28 07:53:08;;;;;;;0.28;0.10;;;20.50;62.60;;;;;;5108397;28;20039;-19
2022/09/28 07:55:33;;;;;;;0.20;0.00;;;20.50;62.30;;;;;;5103968;28;20485;-19
2022/09/28 07:58:00;;;;;;;0.03;0.00;;;20.50;62.50;;;;;;5094801;28;20020;-31
2022/09/28 08:00:26;;;;;;;3.00;0.00;;;20.50;62.40;;;;;;5103750;28;20393;-19
2022/09/28 08:02:52;;;;;;;0.20;0.10;;;20.50;62.40;;;;;;5108126;28;20016;-19
2022/09/28 08:05:18;;;;;;;0.10;0.00;;;20.40;62.40;;;;;;5103617;28;20026;-18
2022/09/28 08:07:43;;;;;;;0.40;0.17;;;20.50;62.50;;;;;;5108409;28;20063;-18
2022/09/28 08:10:09;;;;;;;0.10;0.00;;;20.50;62.50;;;;;;5103756;28;20062;-18
2022/09/28 08:12:35;;;;;;;0.40;0.00;;;20.40;62.50;;;;;;5108983;28;20023;-18
2022/09/28 08:15:00;;;;;;;0.10;0.00;;;20.50;62.30;;;;;;5102535;28;20080;-19
2022/09/28 08:17:26;;;;;;;0.25;0.00;;;20.50;62.50;;;;;;5113169;28;20055;-19
2022/09/28 08:22:37;;;;;;;0.00;0.00;;;20.40;62.30;;;;;;5109174;28;20050;-18
2022/09/28 08:25:03;;;;;;;0.20;0.10;;;20.40;63.20;;;;;;5102627;28;20031;-19
2022/09/28 08:27:29;;;;;;;0.10;0.10;;;20.50;62.30;;;;;;5109734;28;20044;-18
2022/09/28 08:29:55;;;;;;;0.10;0.00;;;20.50;62.50;;;;;;5102812;28;20401;-19
2022/09/28 08:32:20;;;;;;;0.17;0.00;;;20.50;62.40;;;;;;5092124;28;20087;-21
2022/09/28 08:34:46;;;;;;;0.03;0.03;;;20.50;62.40;;;;;;5100278;28;20023;-19
2022/09/28 08:37:11;;;;;;;0.10;0.10;;;20.50;62.50;;;;;;5111889;28;20108;-18
2022/09/28 08:39:37;;;;;;;0.13;0.03;;;20.50;62.50;;;;;;5102762;28;20027;-18
2022/09/28 08:42:21;;;;;;;0.00;0.00;;;20.40;62.40;;;;;;5092237;28;20106;-18
2022/09/28 08:44:49;;;;;;;0.10;0.10;;;20.50;62.30;;;;;;5096167;28;20032;-19
2022/09/28 08:50:16;;;;;;;0.00;0.00;;;20.50;63.20;;;;;;5091963;28;20047;-18
2022/09/28 08:52:42;;;;;;;0.50;0.10;;;20.50;62.40;;;;;;5078507;28;20027;-19
2022/09/28 08:55:28;;;;;;;0.20;0.10;;;20.50;62.20;;;;;;5105951;28;20023;-19
2022/09/28 08:58:12;;;;;;;0.08;0.00;;;20.50;62.20;;;;;;5093536;28;20032;-18
2022/09/28 09:00:49;;;;;;;0.08;0.00;;;20.50;62.10;;;;;;5089043;28;20034;-19
2022/09/28 09:03:32;;;;;;;0.00;0.00;;;20.50;62.00;;;;;;5111466;28;20020;-18
2022/09/28 09:06:20;;;;;;;0.20;0.05;;;20.50;62.20;;;;;;5118300;27;20023;-18
2022/09/28 09:09:17;;;;;;;0.03;0.00;;;20.50;62.10;;;;;;5114060;27;20420;-19
2022/09/28 09:12:14;;;;;;;0.17;0.10;;;20.50;62.30;;;;;;5117469;27;20024;-18
2022/09/28 09:14:48;;;;;;;0.10;0.03;;;20.50;62.20;;;;;;5088874;28;20039;-20
2022/09/28 09:17:35;;;;;;;0.10;0.03;;;20.50;62.20;;;;;;5115205;28;20462;-23
2022/09/28 09:20:01;;;;;;;0.10;0.10;;;20.50;62.20;;;;;;5106120;28;20023;-22
2022/09/28 09:23:27;;;;;;;0.00;0.00;;;20.50;61.90;;;;;;5113663;28;20046;-19
2022/09/28 09:25:53;;;;;;;;;;;20.50;62.10;;;;;;5036829;28;20083;-18
2022/09/28 09:28:27;;;;;;;0.52;0.10;;;20.50;62.00;;;;;;5051761;28;19905;-18
2022/09/28 09:30:54;;;;;;;;;;;20.50;62.10;;;;;;5053231;28;20438;-19
2022/09/28 09:33:31;;;;;;;0.20;0.20;;;20.50;61.90;;;;;;5051624;28;19915;-19
2022/09/28 09:36:05;;;;;;;0.30;0.30;;;20.50;62.20;;;;;;5052943;28;20037;-18
2022/09/28 09:38:57;;;;;;;0.10;0.10;;;20.50;62.30;;;;;;5036028;28;20032;-18
2022/09/28 09:41:31;;;;;;;0.08;0.00;;;20.50;62.10;;;;;;4974062;28;20039;-21
2022/09/28 09:44:05;;;;;;;0.10;0.00;;;20.50;62.00;;;;;;4957650;28;20047;-18
2022/09/28 09:46:53;;;;;;;0.30;0.00;;;20.50;62.10;;;;;;4958105;28;20093;-19
2022/09/28 09:49:28;;;;;;;0.05;0.05;;;20.50;62.10;;;;;;4972613;28;20043;-18
2022/09/28 09:52:03;;;;;;;0.00;0.00;;;20.50;62.00;;;;;;4958134;28;20117;-19
2022/09/28 09:54:34;;;;;;;0.10;0.10;;;20.50;62.10;;;;;;4960475;28;20081;-18
2022/09/28 09:57:18;;;;;;;0.28;0.10;;;20.50;62.00;;;;;;4958128;28;20110;-19
2022/09/28 09:59:44;;;;;;;0.10;0.10;;;20.50;62.10;;;;;;4992906;28;20048;-22
2022/09/28 10:02:29;;;;;;;0.13;0.10;;;20.50;61.90;;;;;;5016113;28;20033;-18
2022/09/28 10:05:26;;;;;;;0.10;0.00;;;20.40;62.00;;;;;;5025400;28;20412;-18
2022/09/28 10:08:07;;;;;;;0.15;0.10;;;20.50;62.10;;;;;;4997652;28;20542;-18
2022/09/28 10:10:36;;;;;;;0.60;0.10;;;20.50;62.10;;;;;;5036563;28;20026;-18
2022/09/28 10:13:02;;;;;;;0.60;0.20;;;20.50;61.90;;;;;;4995619;28;20034;-18
2022/09/28 10:15:30;;;;;;;0.40;0.10;;;20.50;62.80;;;;;;5038781;28;20030;-19
2022/09/28 10:18:06;;;;;;;0.08;0.08;;;20.40;62.20;;;;;;5044297;28;20449;-19
2022/09/28 10:20:33;;;;;;;0.35;0.00;;;20.50;62.20;;;;;;5087448;28;20098;-18
2022/09/28 10:23:01;;;;;;;0.20;0.10;;;20.40;62.00;;;;;;5100767;28;20500;-19
2022/09/28 10:25:26;;;;;;;0.30;0.05;;;20.40;62.30;;;;;;5105426;28;20027;-18
2022/09/28 10:27:53;;;;;;;0.03;0.03;;;20.30;62.10;;;;;;5092068;28;20016;-19
2022/09/28 10:30:23;;;;;;;0.10;0.10;;;20.30;62.30;;;;;;5068864;28;20026;-19
2022/09/28 10:32:57;;;;;;;0.00;0.00;;;20.40;62.30;;;;;;5076972;28;20012;-25
2022/09/28 10:35:27;;;;;;;0.00;0.00;;;20.40;62.20;;;;;;5105345;28;20027;-25
2022/09/28 10:37:58;;;;;;;0.10;0.10;;;20.50;62.00;;;;;;5105793;28;20036;-18
2022/09/28 10:40:29;;;;;;;0.10;0.10;;;20.50;62.20;;;;;;5087553;28;20497;-18
2022/09/28 10:43:04;;;;;;;0.03;0.00;;;20.50;62.20;;;;;;5110484;27;20087;-20
2022/09/28 10:45:36;;;;;;;0.63;0.30;;;20.50;62.00;;;;;;5087386;28;20028;-19
2022/09/28 10:48:12;;;;;;;0.10;0.10;;;20.50;62.10;;;;;;5076900;28;20077;-18
2022/09/28 10:50:38;;;;;;;0.10;0.10;;;20.50;62.10;;;;;;5102600;28;20024;-19
2022/09/28 10:53:11;;;;;;;0.20;0.00;;;20.50;62.20;;;;;;5095557;28;20020;-19
2022/09/28 10:55:37;;;;;;;0.10;0.10;;;20.50;62.20;;;;;;5104897;28;20026;-19
2022/09/28 10:58:47;;;;;;;0.05;0.05;;;20.40;62.00;;;;;;5094992;28;20381;-25
2022/09/28 11:01:18;;;;;;;0.10;0.10;;;20.50;62.10;;;;;;5105791;28;20039;-18
2022/09/28 11:04:00;;;;;;;1.10;0.10;;;20.40;62.10;;;;;;5087053;28;20032;-18
2022/09/28 11:06:35;;;;;;;0.10;0.10;;;20.50;62.20;;;;;;5110463;27;20489;-28
2022/09/28 11:09:05;;;;;;;0.20;0.10;;;20.40;62.30;;;;;;5068572;28;20024;-18
2022/09/28 11:11:38;;;;;;;1.08;0.08;;;20.40;62.30;;;;;;5080407;28;20114;-18
2022/09/28 11:14:03;;;;;;;0.00;0.00;;;20.40;62.10;;;;;;5095259;28;20023;-18
2022/09/28 11:16:30;;;;;;;0.10;0.10;;;20.50;62.10;;;;;;5105121;28;20467;-18
2022/09/28 11:18:57;;;;;;;0.32;0.10;;;20.50;61.90;;;;;;5071194;28;20036;-19
2022/09/28 11:21:27;;;;;;;0.20;0.20;;;20.50;62.00;;;;;;4740102;27;9999829;-24
2022/09/28 11:23:56;;;;;;;0.10;0.00;;;20.50;61.80;;;;;;5094443;28;20091;-18
2022/09/28 11:26:21;;;;;;;0.00;0.00;;;20.40;61.50;;;;;;5097405;28;20502;-25
2022/09/28 11:28:50;;;;;;;0.15;0.10;;;20.40;62.10;;;;;;5093597;28;20073;-18
2022/09/28 11:31:15;;;;;;;0.20;0.10;;;20.30;62.10;;;;;;5107555;27;20024;-19
2022/09/28 11:33:42;;;;;;;0.20;0.20;;;20.30;62.30;;;;;;5084562;28;20028;-18
2022/09/28 11:36:13;;;;;;;0.20;0.10;;;20.30;62.10;;;;;;5069131;28;20070;-18
2022/09/28 11:39:03;;;;;;;0.50;0.25;;;20.40;62.30;;;;;;5099530;28;20016;-18
2022/09/28 11:41:51;;;;;;;0.45;0.10;;;20.40;62.50;;;;;;5103756;28;20099;-19
2022/09/28 11:44:45;;;;;;;0.10;0.10;;;20.40;63.00;;;;;;5084515;28;20402;-19
2022/09/28 11:47:16;;;;;;;0.60;0.00;;;20.30;63.10;;;;;;5080953;28;20128;-18
2022/09/28 11:50:05;;;;;;;0.28;0.10;;;20.40;63.20;;;;;;5087090;28;20044;-18
2022/09/28 11:52:42;;;;;;;0.52;0.10;;;20.30;63.30;;;;;;5101816;28;20023;-18
2022/09/28 11:55:20;;;;;;;0.47;0.30;;;20.40;63.30;;;;;;5066466;28;20028;-18
2022/09/28 11:57:47;;;;;;;0.15;0.15;;;20.50;62.50;;;;;;5078011;28;20103;-19
2022/09/28 12:00:15;;;;;;;2.35;0.38;;;20.40;63.60;;;;;;5083516;28;20459;-19
2022/09/28 12:02:44;;;;;;;0.28;0.17;;;20.40;63.00;;;;;;5067633;28;20020;-18
2022/09/28 12:05:12;;;;;;;0.10;0.10;;;20.40;63.40;;;;;;5087320;28;20039;-18
2022/09/28 12:07:49;;;;;;;0.63;0.10;;;20.40;63.00;;;;;;5078467;28;20045;-18
2022/09/28 12:10:25;;;;;;;0.68;0.20;;;20.40;63.10;;;;;;5067907;28;20090;-18
2022/09/28 12:13:02;;;;;;;0.38;0.20;;;20.40;63.20;;;;;;5102586;28;20505;-18
2022/09/28 12:15:51;;;;;;;0.57;0.20;;;20.50;63.00;;;;;;5103914;27;20493;-18
2022/09/28 12:18:40;;;;;;;0.75;0.15;;;20.50;64.40;;;;;;5077755;28;20506;-19
2022/09/28 12:21:24;;;;;;;4.10;0.45;;;20.40;64.40;;;;;;5094542;28;20444;-19
2022/09/28 12:23:59;;;;;;;0.25;0.20;;;20.40;63.50;;;;;;5107673;28;20008;-18
2022/09/28 12:26:44;;;;;;;0.30;0.30;;;20.50;63.20;;;;;;5092601;28;20100;-18
2022/09/28 12:29:28;;;;;;;;;;;20.50;63.30;;;;;;5105575;28;20385;-18
2022/09/28 12:32:19;;;;;;;5.43;0.20;;;20.50;63.20;;;;;;5106765;28;19903;-18
2022/09/28 12:34:45;;;;;;;0.20;0.20;;;20.50;63.20;;;;;;5036254;28;20038;-18
2022/09/28 12:37:28;;;;;;;0.10;0.10;;;20.50;63.00;;;;;;5039281;28;20044;-19
2022/09/28 12:40:21;;;;;;;0.75;0.30;;;20.50;62.70;;;;;;5034537;28;20412;-19
2022/09/28 12:42:59;;;;;;;0.55;0.20;;;20.50;62.70;;;;;;5035315;28;20064;-19
2022/09/28 12:45:41;;;;;;;0.25;0.10;;;20.50;62.80;;;;;;5018024;28;20116;-19
2022/09/28 12:48:09;;;;;;;1.75;0.13;;;20.50;63.00;;;;;;5028582;28;20029;-19
2022/09/28 12:50:47;;;;;;;0.17;0.10;;;20.50;63.00;;;;;;5031585;28;20025;-18
2022/09/28 12:53:32;;;;;;;0.73;0.20;;;20.50;63.30;;;;;;5037488;28;20469;-16
2022/09/28 12:56:03;;;;;;;0.20;0.10;;;20.50;63.10;;;;;;5021198;28;20013;-18
2022/09/28 12:58:58;;;;;;;0.30;0.20;;;20.50;63.40;;;;;;5021360;28;20120;-18
2022/09/28 13:01:34;;;;;;;0.45;0.10;;;20.40;63.40;;;;;;5018073;28;20022;-19
2022/09/28 13:04:17;;;;;;;0.63;0.10;;;20.40;63.50;;;;;;5032839;28;20061;-18
2022/09/28 13:06:47;;;;;;;0.52;0.32;;;20.50;63.50;;;;;;5037949;28;20028;-19
2022/09/28 13:09:22;;;;;;;0.45;0.10;;;20.50;63.10;;;;;;5017851;28;20022;-18
2022/09/28 13:12:12;;;;;;;0.28;0.10;;;20.60;63.30;;;;;;5057259;28;20085;-18
2022/09/28 13:15:01;;;;;;;0.30;0.15;;;20.60;63.00;;;;;;5080332;28;20047;-18
2022/09/28 13:17:50;;;;;;;0.20;0.20;;;20.60;62.90;;;;;;5092202;28;20051;-18
2022/09/28 13:20:25;;;;;;;0.47;0.10;;;20.60;63.00;;;;;;5108455;28;20456;-19
2022/09/28 13:23:02;;;;;;;1.35;0.10;;;20.50;63.10;;;;;;5111415;28;20024;-18
2022/09/28 13:25:28;;;;;;;0.30;0.10;;;20.50;63.30;;;;;;5111607;28;20386;-18
2022/09/28 13:28:01;;;;;;;0.45;0.10;;;20.50;63.50;;;;;;5095949;28;20054;-18
2022/09/28 13:30:27;;;;;;;1.85;0.13;;;20.50;63.50;;;;;;5108696;28;20030;-18
2022/09/28 13:32:56;;;;;;;0.20;0.20;;;20.50;64.10;;;;;;5089758;28;20110;-19